sensor_id;sensor_type;location;lat;lon;timestamp;P1;durP1;ratioP1;P2;durP2;ratioP2
74177;SDS011;62540;48.456;-4.456;2022-11-18T00:01:29;2.00;;;0.00;;
74177;SDS011;62540;48.456;-4.456;2022-11-18T00:03:55;0.25;;;0.00;;
74177;SDS011;62540;48.456;-4.456;2022-11-18T00:06:24;0.50;;;0.00;;
74177;SDS011;62540;48.456;-4.456;2022-11-18T00:08:51;0.00;;;0.00;;
74177;SDS011;62540;48.456;-4.456;2022-11-18T00:11:19;3.00;;;0.00;;
74177;SDS011;62540;48.456;-4.456;2022-11-18T00:14:05;0.00;;;0.00;;
74177;SDS011;62540;48.456;-4.456;2022-11-18T00:16:44;2.25;;;0.00;;
74177;SDS011;62540;48.456;-4.456;2022-11-18T00:19:10;1.75;;;0.50;;
74177;SDS011;62540;48.456;-4.456;2022-11-18T00:21:36;0.25;;;0.00;;
74177;SDS011;62540;48.456;-4.456;2022-11-18T00:24:01;1.00;;;0.00;;
74177;SDS011;62540;48.456;-4.456;2022-11-18T00:26:26;0.00;;;0.00;;
74177;SDS011;62540;48.456;-4.456;2022-11-18T00:28:52;1.75;;;1.00;;
74177;SDS011;62540;48.456;-4.456;2022-11-18T00:31:17;2.00;;;0.00;;
74177;SDS011;62540;48.456;-4.456;2022-11-18T00:33:43;0.00;;;0.00;;
74177;SDS011;62540;48.456;-4.456;2022-11-18T00:36:10;1.50;;;0.00;;
74177;SDS011;62540;48.456;-4.456;2022-11-18T00:38:36;0.00;;;0.00;;
74177;SDS011;62540;48.456;-4.456;2022-11-18T00:41:03;0.00;;;0.00;;
74177;SDS011;62540;48.456;-4.456;2022-11-18T00:43:29;0.75;;;0.00;;
74177;SDS011;62540;48.456;-4.456;2022-11-18T00:45:55;1.00;;;0.00;;
74177;SDS011;62540;48.456;-4.456;2022-11-18T00:48:21;0.00;;;0.00;;
74177;SDS011;62540;48.456;-4.456;2022-11-18T00:50:47;0.75;;;0.00;;
74177;SDS011;62540;48.456;-4.456;2022-11-18T00:53:14;1.00;;;0.00;;
74177;SDS011;62540;48.456;-4.456;2022-11-18T00:55:40;0.00;;;0.00;;
74177;SDS011;62540;48.456;-4.456;2022-11-18T00:58:05;0.00;;;0.00;;
74177;SDS011;62540;48.456;-4.456;2022-11-18T01:00:31;1.00;;;0.00;;
74177;SDS011;62540;48.456;-4.456;2022-11-18T01:02:56;0.75;;;0.00;;
74177;SDS011;62540;48.456;-4.456;2022-11-18T01:05:22;1.00;;;0.00;;
74177;SDS011;62540;48.456;-4.456;2022-11-18T01:07:47;1.00;;;0.00;;
74177;SDS011;62540;48.456;-4.456;2022-11-18T01:10:13;0.25;;;0.00;;
74177;SDS011;62540;48.456;-4.456;2022-11-18T01:12:38;0.00;;;0.00;;
74177;SDS011;62540;48.456;-4.456;2022-11-18T01:15:22;1.00;;;0.00;;
74177;SDS011;62540;48.456;-4.456;2022-11-18T01:17:47;0.00;;;0.00;;
74177;SDS011;62540;48.456;-4.456;2022-11-18T01:20:14;2.00;;;0.00;;
74177;SDS011;62540;48.456;-4.456;2022-11-18T01:22:39;0.75;;;0.00;;
74177;SDS011;62540;48.456;-4.456;2022-11-18T01:25:05;2.00;;;0.00;;
74177;SDS011;62540;48.456;-4.456;2022-11-18T01:27:31;1.50;;;0.00;;
74177;SDS011;62540;48.456;-4.456;2022-11-18T01:29:56;0.00;;;0.00;;
74177;SDS011;62540;48.456;-4.456;2022-11-18T01:32:21;0.25;;;0.00;;
74177;SDS011;62540;48.456;-4.456;2022-11-18T01:34:47;0.75;;;0.00;;
74177;SDS011;62540;48.456;-4.456;2022-11-18T01:37:12;0.00;;;0.00;;
74177;SDS011;62540;48.456;-4.456;2022-11-18T01:39:38;0.00;;;0.00;;
74177;SDS011;62540;48.456;-4.456;2022-11-18T01:42:03;1.00;;;0.50;;
74177;SDS011;62540;48.456;-4.456;2022-11-18T01:47:27;1.00;;;0.50;;
74177;SDS011;62540;48.456;-4.456;2022-11-18T01:49:57;0.00;;;0.00;;
74177;SDS011;62540;48.456;-4.456;2022-11-18T01:52:23;0.00;;;0.00;;
74177;SDS011;62540;48.456;-4.456;2022-11-18T01:54:50;1.00;;;0.00;;
74177;SDS011;62540;48.456;-4.456;2022-11-18T01:57:21;1.00;;;0.00;;
74177;SDS011;62540;48.456;-4.456;2022-11-18T01:59:52;0.25;;;0.25;;
74177;SDS011;62540;48.456;-4.456;2022-11-18T02:02:22;0.00;;;0.00;;
74177;SDS011;62540;48.456;-4.456;2022-11-18T02:04:48;0.25;;;0.00;;
74177;SDS011;62540;48.456;-4.456;2022-11-18T02:07:16;0.00;;;0.00;;
74177;SDS011;62540;48.456;-4.456;2022-11-18T02:09:43;0.00;;;0.00;;
74177;SDS011;62540;48.456;-4.456;2022-11-18T02:12:09;0.00;;;0.00;;
74177;SDS011;62540;48.456;-4.456;2022-11-18T02:14:36;0.00;;;0.00;;
74177;SDS011;62540;48.456;-4.456;2022-11-18T02:19:55;0.00;;;0.00;;
74177;SDS011;62540;48.456;-4.456;2022-11-18T02:28:53;1.00;;;0.00;;
74177;SDS011;62540;48.456;-4.456;2022-11-18T02:33:54;0.25;;;0.00;;
74177;SDS011;62540;48.456;-4.456;2022-11-18T02:36:30;2.00;;;0.75;;
74177;SDS011;62540;48.456;-4.456;2022-11-18T02:39:07;0.50;;;0.00;;
74177;SDS011;62540;48.456;-4.456;2022-11-18T02:41:41;1.00;;;0.75;;
74177;SDS011;62540;48.456;-4.456;2022-11-18T02:44:11;2.75;;;1.00;;
74177;SDS011;62540;48.456;-4.456;2022-11-18T02:46:39;4.50;;;2.75;;
74177;SDS011;62540;48.456;-4.456;2022-11-18T02:49:13;4.25;;;3.00;;
74177;SDS011;62540;48.456;-4.456;2022-11-18T02:51:45;1.00;;;1.00;;
74177;SDS011;62540;48.456;-4.456;2022-11-18T02:54:13;2.00;;;1.00;;
74177;SDS011;62540;48.456;-4.456;2022-11-18T02:56:42;0.75;;;0.00;;
74177;SDS011;62540;48.456;-4.456;2022-11-18T02:59:09;1.00;;;1.00;;
74177;SDS011;62540;48.456;-4.456;2022-11-18T03:01:35;1.00;;;1.00;;
74177;SDS011;62540;48.456;-4.456;2022-11-18T03:04:00;0.00;;;0.00;;
74177;SDS011;62540;48.456;-4.456;2022-11-18T03:11:35;1.50;;;1.00;;
74177;SDS011;62540;48.456;-4.456;2022-11-18T03:16:43;2.00;;;0.00;;
74177;SDS011;62540;48.456;-4.456;2022-11-18T03:19:31;0.00;;;0.00;;
74177;SDS011;62540;48.456;-4.456;2022-11-18T03:22:07;0.75;;;0.50;;
74177;SDS011;62540;48.456;-4.456;2022-11-18T03:24:44;0.00;;;0.00;;
74177;SDS011;62540;48.456;-4.456;2022-11-18T03:27:18;0.75;;;0.00;;
74177;SDS011;62540;48.456;-4.456;2022-11-18T03:29:53;0.00;;;0.00;;
74177;SDS011;62540;48.456;-4.456;2022-11-18T03:32:31;0.25;;;0.00;;
74177;SDS011;62540;48.456;-4.456;2022-11-18T03:35:07;0.00;;;0.00;;
74177;SDS011;62540;48.456;-4.456;2022-11-18T03:37:37;1.00;;;1.00;;
74177;SDS011;62540;48.456;-4.456;2022-11-18T03:40:14;0.50;;;0.00;;
74177;SDS011;62540;48.456;-4.456;2022-11-18T03:42:45;0.25;;;0.00;;
74177;SDS011;62540;48.456;-4.456;2022-11-18T03:45:19;0.00;;;0.00;;
74177;SDS011;62540;48.456;-4.456;2022-11-18T03:47:54;2.00;;;0.00;;
74177;SDS011;62540;48.456;-4.456;2022-11-18T03:50:29;0.75;;;0.00;;
74177;SDS011;62540;48.456;-4.456;2022-11-18T03:52:59;2.00;;;0.00;;
74177;SDS011;62540;48.456;-4.456;2022-11-18T03:55:28;0.00;;;0.00;;
74177;SDS011;62540;48.456;-4.456;2022-11-18T04:00:55;1.00;;;1.00;;
74177;SDS011;62540;48.456;-4.456;2022-11-18T04:03:25;0.50;;;0.00;;
74177;SDS011;62540;48.456;-4.456;2022-11-18T04:05:53;0.75;;;0.00;;
74177;SDS011;62540;48.456;-4.456;2022-11-18T04:08:41;0.75;;;0.00;;
74177;SDS011;62540;48.456;-4.456;2022-11-18T04:11:14;3.25;;;2.00;;
74177;SDS011;62540;48.456;-4.456;2022-11-18T04:14:02;1.25;;;0.50;;
74177;SDS011;62540;48.456;-4.456;2022-11-18T04:16:30;0.00;;;0.00;;
74177;SDS011;62540;48.456;-4.456;2022-11-18T04:18:55;0.00;;;0.00;;
74177;SDS011;62540;48.456;-4.456;2022-11-18T04:21:21;0.00;;;0.00;;
74177;SDS011;62540;48.456;-4.456;2022-11-18T04:23:46;0.50;;;0.00;;
74177;SDS011;62540;48.456;-4.456;2022-11-18T04:26:11;0.00;;;0.00;;
74177;SDS011;62540;48.456;-4.456;2022-11-18T04:28:37;1.00;;;0.00;;
74177;SDS011;62540;48.456;-4.456;2022-11-18T04:31:02;0.75;;;0.00;;
74177;SDS011;62540;48.456;-4.456;2022-11-18T04:33:28;3.00;;;2.25;;
74177;SDS011;62540;48.456;-4.456;2022-11-18T04:35:53;0.25;;;0.25;;
74177;SDS011;62540;48.456;-4.456;2022-11-18T04:38:19;2.50;;;1.00;;
74177;SDS011;62540;48.456;-4.456;2022-11-18T04:40:44;2.00;;;1.00;;
74177;SDS011;62540;48.456;-4.456;2022-11-18T04:43:10;1.50;;;1.00;;
74177;SDS011;62540;48.456;-4.456;2022-11-18T04:45:36;2.00;;;1.00;;
74177;SDS011;62540;48.456;-4.456;2022-11-18T04:48:01;3.00;;;0.00;;
74177;SDS011;62540;48.456;-4.456;2022-11-18T04:50:26;3.25;;;2.00;;
74177;SDS011;62540;48.456;-4.456;2022-11-18T04:52:52;2.50;;;1.00;;
74177;SDS011;62540;48.456;-4.456;2022-11-18T04:55:17;3.75;;;1.75;;
74177;SDS011;62540;48.456;-4.456;2022-11-18T04:57:44;1.00;;;1.00;;
74177;SDS011;62540;48.456;-4.456;2022-11-18T05:00:10;0.75;;;0.75;;
74177;SDS011;62540;48.456;-4.456;2022-11-18T05:02:36;1.00;;;0.00;;
74177;SDS011;62540;48.456;-4.456;2022-11-18T05:05:01;0.25;;;0.25;;
74177;SDS011;62540;48.456;-4.456;2022-11-18T05:07:27;0.00;;;0.00;;
74177;SDS011;62540;48.456;-4.456;2022-11-18T05:09:52;0.25;;;0.00;;
74177;SDS011;62540;48.456;-4.456;2022-11-18T05:12:17;1.25;;;1.00;;
74177;SDS011;62540;48.456;-4.456;2022-11-18T05:15:02;0.00;;;0.00;;
74177;SDS011;62540;48.456;-4.456;2022-11-18T05:17:27;0.00;;;0.00;;
74177;SDS011;62540;48.456;-4.456;2022-11-18T05:19:53;0.00;;;0.00;;
74177;SDS011;62540;48.456;-4.456;2022-11-18T05:22:18;0.75;;;0.75;;
74177;SDS011;62540;48.456;-4.456;2022-11-18T05:24:44;1.00;;;0.00;;
74177;SDS011;62540;48.456;-4.456;2022-11-18T05:27:09;1.00;;;0.00;;
74177;SDS011;62540;48.456;-4.456;2022-11-18T05:29:35;1.00;;;1.00;;
74177;SDS011;62540;48.456;-4.456;2022-11-18T05:32:01;0.75;;;0.75;;
74177;SDS011;62540;48.456;-4.456;2022-11-18T05:34:26;0.00;;;0.00;;
74177;SDS011;62540;48.456;-4.456;2022-11-18T05:36:52;2.00;;;0.75;;
74177;SDS011;62540;48.456;-4.456;2022-11-18T05:39:17;0.50;;;0.00;;
74177;SDS011;62540;48.456;-4.456;2022-11-18T05:41:42;0.25;;;0.00;;
74177;SDS011;62540;48.456;-4.456;2022-11-18T05:44:26;0.50;;;0.00;;
74177;SDS011;62540;48.456;-4.456;2022-11-18T05:46:52;0.00;;;0.00;;
74177;SDS011;62540;48.456;-4.456;2022-11-18T05:49:18;1.00;;;0.50;;
74177;SDS011;62540;48.456;-4.456;2022-11-18T05:51:44;0.25;;;0.25;;
74177;SDS011;62540;48.456;-4.456;2022-11-18T05:54:09;1.00;;;0.00;;
74177;SDS011;62540;48.456;-4.456;2022-11-18T05:56:39;1.00;;;1.00;;
74177;SDS011;62540;48.456;-4.456;2022-11-18T05:59:06;1.00;;;1.00;;
74177;SDS011;62540;48.456;-4.456;2022-11-18T06:01:40;1.25;;;1.00;;
74177;SDS011;62540;48.456;-4.456;2022-11-18T06:06:48;0.00;;;0.00;;
74177;SDS011;62540;48.456;-4.456;2022-11-18T06:09:17;1.00;;;1.00;;
74177;SDS011;62540;48.456;-4.456;2022-11-18T06:11:47;1.00;;;0.75;;
74177;SDS011;62540;48.456;-4.456;2022-11-18T06:14:27;3.00;;;1.00;;
74177;SDS011;62540;48.456;-4.456;2022-11-18T06:17:04;2.50;;;1.50;;
74177;SDS011;62540;48.456;-4.456;2022-11-18T06:19:34;1.00;;;1.00;;
74177;SDS011;62540;48.456;-4.456;2022-11-18T06:21:59;0.75;;;0.75;;
74177;SDS011;62540;48.456;-4.456;2022-11-18T06:24:25;0.00;;;0.00;;
74177;SDS011;62540;48.456;-4.456;2022-11-18T06:26:50;0.00;;;0.00;;
74177;SDS011;62540;48.456;-4.456;2022-11-18T06:29:16;0.75;;;0.00;;
74177;SDS011;62540;48.456;-4.456;2022-11-18T06:31:44;1.00;;;0.00;;
74177;SDS011;62540;48.456;-4.456;2022-11-18T06:34:09;0.75;;;0.00;;
74177;SDS011;62540;48.456;-4.456;2022-11-18T06:36:35;1.00;;;1.00;;
74177;SDS011;62540;48.456;-4.456;2022-11-18T06:39:03;1.00;;;1.00;;
74177;SDS011;62540;48.456;-4.456;2022-11-18T06:41:30;2.00;;;0.00;;
74177;SDS011;62540;48.456;-4.456;2022-11-18T06:43:56;1.00;;;1.00;;
74177;SDS011;62540;48.456;-4.456;2022-11-18T06:46:22;1.00;;;0.00;;
74177;SDS011;62540;48.456;-4.456;2022-11-18T06:49:05;1.00;;;1.00;;
74177;SDS011;62540;48.456;-4.456;2022-11-18T06:51:31;1.00;;;0.00;;
74177;SDS011;62540;48.456;-4.456;2022-11-18T06:53:56;0.75;;;0.00;;
74177;SDS011;62540;48.456;-4.456;2022-11-18T06:56:22;0.00;;;0.00;;
74177;SDS011;62540;48.456;-4.456;2022-11-18T06:58:51;0.50;;;0.00;;
74177;SDS011;62540;48.456;-4.456;2022-11-18T07:01:19;0.00;;;0.00;;
74177;SDS011;62540;48.456;-4.456;2022-11-18T07:03:49;0.00;;;0.00;;
74177;SDS011;62540;48.456;-4.456;2022-11-18T07:06:16;0.00;;;0.00;;
74177;SDS011;62540;48.456;-4.456;2022-11-18T07:08:46;0.00;;;0.00;;
74177;SDS011;62540;48.456;-4.456;2022-11-18T07:11:13;1.50;;;0.00;;
74177;SDS011;62540;48.456;-4.456;2022-11-18T07:13:41;0.75;;;0.00;;
74177;SDS011;62540;48.456;-4.456;2022-11-18T07:16:08;1.00;;;1.00;;
74177;SDS011;62540;48.456;-4.456;2022-11-18T07:18:36;2.00;;;1.00;;
74177;SDS011;62540;48.456;-4.456;2022-11-18T07:21:06;1.75;;;1.75;;
74177;SDS011;62540;48.456;-4.456;2022-11-18T07:23:33;1.25;;;0.00;;
74177;SDS011;62540;48.456;-4.456;2022-11-18T07:25:59;0.00;;;0.00;;
74177;SDS011;62540;48.456;-4.456;2022-11-18T07:28:26;0.50;;;0.50;;
74177;SDS011;62540;48.456;-4.456;2022-11-18T07:30:52;0.50;;;0.00;;
74177;SDS011;62540;48.456;-4.456;2022-11-18T07:33:17;0.00;;;0.00;;
74177;SDS011;62540;48.456;-4.456;2022-11-18T07:35:43;1.00;;;0.25;;
74177;SDS011;62540;48.456;-4.456;2022-11-18T07:38:08;0.00;;;0.00;;
74177;SDS011;62540;48.456;-4.456;2022-11-18T07:40:34;0.00;;;0.00;;
74177;SDS011;62540;48.456;-4.456;2022-11-18T07:42:59;0.00;;;0.00;;
74177;SDS011;62540;48.456;-4.456;2022-11-18T07:45:24;0.00;;;0.00;;
74177;SDS011;62540;48.456;-4.456;2022-11-18T07:47:50;0.00;;;0.00;;
74177;SDS011;62540;48.456;-4.456;2022-11-18T07:50:19;1.00;;;0.00;;
74177;SDS011;62540;48.456;-4.456;2022-11-18T07:52:44;2.00;;;0.00;;
74177;SDS011;62540;48.456;-4.456;2022-11-18T07:55:09;2.25;;;0.00;;
74177;SDS011;62540;48.456;-4.456;2022-11-18T07:57:35;0.00;;;0.00;;
74177;SDS011;62540;48.456;-4.456;2022-11-18T08:00:00;0.00;;;0.00;;
74177;SDS011;62540;48.456;-4.456;2022-11-18T08:02:26;0.00;;;0.00;;
74177;SDS011;62540;48.456;-4.456;2022-11-18T08:04:51;1.50;;;0.00;;
74177;SDS011;62540;48.456;-4.456;2022-11-18T08:07:17;1.00;;;0.00;;
74177;SDS011;62540;48.456;-4.456;2022-11-18T08:09:42;1.75;;;0.00;;
74177;SDS011;62540;48.456;-4.456;2022-11-18T08:12:07;0.00;;;0.00;;
74177;SDS011;62540;48.456;-4.456;2022-11-18T08:14:33;0.00;;;0.00;;
74177;SDS011;62540;48.456;-4.456;2022-11-18T08:16:58;4.00;;;3.00;;
74177;SDS011;62540;48.456;-4.456;2022-11-18T08:19:24;2.00;;;1.00;;
74177;SDS011;62540;48.456;-4.456;2022-11-18T08:21:49;2.00;;;1.00;;
74177;SDS011;62540;48.456;-4.456;2022-11-18T08:24:14;2.25;;;2.00;;
74177;SDS011;62540;48.456;-4.456;2022-11-18T08:26:40;0.00;;;0.00;;
74177;SDS011;62540;48.456;-4.456;2022-11-18T08:29:05;0.75;;;0.00;;
74177;SDS011;62540;48.456;-4.456;2022-11-18T08:31:31;0.25;;;0.00;;
74177;SDS011;62540;48.456;-4.456;2022-11-18T08:34:00;1.50;;;0.00;;
74177;SDS011;62540;48.456;-4.456;2022-11-18T08:36:28;1.00;;;0.00;;
74177;SDS011;62540;48.456;-4.456;2022-11-18T08:38:56;1.25;;;0.00;;
74177;SDS011;62540;48.456;-4.456;2022-11-18T08:41:36;0.75;;;0.00;;
74177;SDS011;62540;48.456;-4.456;2022-11-18T08:44:04;1.00;;;1.00;;
74177;SDS011;62540;48.456;-4.456;2022-11-18T08:46:30;1.00;;;0.00;;
74177;SDS011;62540;48.456;-4.456;2022-11-18T08:48:56;0.75;;;0.00;;
74177;SDS011;62540;48.456;-4.456;2022-11-18T08:51:23;0.00;;;0.00;;
74177;SDS011;62540;48.456;-4.456;2022-11-18T08:53:49;0.00;;;0.00;;
74177;SDS011;62540;48.456;-4.456;2022-11-18T08:56:15;1.00;;;0.00;;
74177;SDS011;62540;48.456;-4.456;2022-11-18T08:58:43;0.25;;;0.00;;
74177;SDS011;62540;48.456;-4.456;2022-11-18T09:01:09;0.00;;;0.00;;
74177;SDS011;62540;48.456;-4.456;2022-11-18T09:03:35;0.25;;;0.00;;
74177;SDS011;62540;48.456;-4.456;2022-11-18T09:06:11;0.00;;;0.00;;
74177;SDS011;62540;48.456;-4.456;2022-11-18T09:08:38;0.00;;;0.00;;
74177;SDS011;62540;48.456;-4.456;2022-11-18T09:11:12;0.25;;;0.00;;
74177;SDS011;62540;48.456;-4.456;2022-11-18T09:13:39;0.00;;;0.00;;
74177;SDS011;62540;48.456;-4.456;2022-11-18T09:16:05;0.50;;;0.00;;
74177;SDS011;62540;48.456;-4.456;2022-11-18T09:18:32;1.00;;;0.00;;
74177;SDS011;62540;48.456;-4.456;2022-11-18T09:20:59;0.00;;;0.00;;
74177;SDS011;62540;48.456;-4.456;2022-11-18T09:23:26;0.00;;;0.00;;
74177;SDS011;62540;48.456;-4.456;2022-11-18T09:25:58;0.00;;;0.00;;
74177;SDS011;62540;48.456;-4.456;2022-11-18T09:28:24;0.00;;;0.00;;
74177;SDS011;62540;48.456;-4.456;2022-11-18T09:30:49;0.00;;;0.00;;
74177;SDS011;62540;48.456;-4.456;2022-11-18T09:33:15;0.00;;;0.00;;
74177;SDS011;62540;48.456;-4.456;2022-11-18T09:35:43;1.75;;;0.00;;
74177;SDS011;62540;48.456;-4.456;2022-11-18T09:38:09;1.00;;;1.00;;
74177;SDS011;62540;48.456;-4.456;2022-11-18T09:40:44;0.50;;;0.00;;
74177;SDS011;62540;48.456;-4.456;2022-11-18T09:46:37;0.00;;;0.00;;
74177;SDS011;62540;48.456;-4.456;2022-11-18T09:49:25;1.00;;;1.00;;
74177;SDS011;62540;48.456;-4.456;2022-11-18T09:51:54;1.00;;;1.00;;
74177;SDS011;62540;48.456;-4.456;2022-11-18T09:56:51;3.00;;;3.00;;
74177;SDS011;62540;48.456;-4.456;2022-11-18T09:59:18;1.75;;;1.25;;
74177;SDS011;62540;48.456;-4.456;2022-11-18T10:01:46;0.50;;;0.00;;
74177;SDS011;62540;48.456;-4.456;2022-11-18T10:04:14;1.00;;;0.00;;
74177;SDS011;62540;48.456;-4.456;2022-11-18T10:06:42;1.00;;;1.00;;
74177;SDS011;62540;48.456;-4.456;2022-11-18T10:20:17;0.50;;;0.50;;
74177;SDS011;62540;48.456;-4.456;2022-11-18T10:22:57;0.00;;;0.00;;
74177;SDS011;62540;48.456;-4.456;2022-11-18T10:25:59;0.25;;;0.00;;
74177;SDS011;62540;48.456;-4.456;2022-11-18T10:28:27;0.75;;;0.75;;
74177;SDS011;62540;48.456;-4.456;2022-11-18T10:31:08;0.00;;;0.00;;
74177;SDS011;62540;48.456;-4.456;2022-11-18T10:33:35;0.00;;;0.00;;
74177;SDS011;62540;48.456;-4.456;2022-11-18T10:38:42;0.00;;;0.00;;
74177;SDS011;62540;48.456;-4.456;2022-11-18T10:41:11;1.00;;;0.00;;
74177;SDS011;62540;48.456;-4.456;2022-11-18T10:48:46;0.00;;;0.00;;
74177;SDS011;62540;48.456;-4.456;2022-11-18T10:51:19;0.00;;;0.00;;
74177;SDS011;62540;48.456;-4.456;2022-11-18T10:53:46;0.25;;;0.00;;
74177;SDS011;62540;48.456;-4.456;2022-11-18T10:56:12;0.75;;;0.00;;
74177;SDS011;62540;48.456;-4.456;2022-11-18T10:58:45;0.00;;;0.00;;
74177;SDS011;62540;48.456;-4.456;2022-11-18T11:01:21;0.00;;;0.00;;
74177;SDS011;62540;48.456;-4.456;2022-11-18T11:04:05;0.50;;;0.00;;
74177;SDS011;62540;48.456;-4.456;2022-11-18T11:06:40;1.00;;;0.00;;
74177;SDS011;62540;48.456;-4.456;2022-11-18T11:09:27;0.00;;;0.00;;
74177;SDS011;62540;48.456;-4.456;2022-11-18T11:14:42;0.00;;;0.00;;
74177;SDS011;62540;48.456;-4.456;2022-11-18T11:17:17;0.00;;;0.00;;
74177;SDS011;62540;48.456;-4.456;2022-11-18T11:19:50;1.00;;;0.00;;
74177;SDS011;62540;48.456;-4.456;2022-11-18T11:22:23;0.00;;;0.00;;
74177;SDS011;62540;48.456;-4.456;2022-11-18T11:24:48;0.00;;;0.00;;
74177;SDS011;62540;48.456;-4.456;2022-11-18T11:30:20;0.75;;;0.00;;
74177;SDS011;62540;48.456;-4.456;2022-11-18T11:35:25;0.00;;;0.00;;
74177;SDS011;62540;48.456;-4.456;2022-11-18T11:37:54;0.25;;;0.00;;
74177;SDS011;62540;48.456;-4.456;2022-11-18T11:40:34;0.00;;;0.00;;
74177;SDS011;62540;48.456;-4.456;2022-11-18T11:51:52;0.00;;;0.00;;
74177;SDS011;62540;48.456;-4.456;2022-11-18T12:07:59;0.00;;;0.00;;
74177;SDS011;62540;48.456;-4.456;2022-11-18T12:13:13;0.00;;;0.00;;
74177;SDS011;62540;48.456;-4.456;2022-11-18T12:18:19;0.00;;;0.00;;
74177;SDS011;62540;48.456;-4.456;2022-11-18T12:20:48;0.00;;;0.00;;
74177;SDS011;62540;48.456;-4.456;2022-11-18T12:23:19;0.25;;;0.00;;
74177;SDS011;62540;48.456;-4.456;2022-11-18T12:28:57;0.00;;;0.00;;
74177;SDS011;62540;48.456;-4.456;2022-11-18T12:33:43;0.00;;;0.00;;
74177;SDS011;62540;48.456;-4.456;2022-11-18T12:38:56;0.00;;;0.00;;
74177;SDS011;62540;48.456;-4.456;2022-11-18T12:44:22;0.00;;;0.00;;
74177;SDS011;62540;48.456;-4.456;2022-11-18T12:46:48;1.00;;;0.00;;
74177;SDS011;62540;48.456;-4.456;2022-11-18T12:51:54;0.00;;;0.00;;
74177;SDS011;62540;48.456;-4.456;2022-11-18T12:54:43;2.25;;;0.00;;
74177;SDS011;62540;48.456;-4.456;2022-11-18T12:57:22;0.00;;;0.00;;
74177;SDS011;62540;48.456;-4.456;2022-11-18T12:59:57;0.00;;;0.00;;
74177;SDS011;62540;48.456;-4.456;2022-11-18T13:02:26;0.00;;;0.00;;
74177;SDS011;62540;48.456;-4.456;2022-11-18T13:05:03;0.00;;;0.00;;
74177;SDS011;62540;48.456;-4.456;2022-11-18T13:07:55;0.25;;;0.00;;
74177;SDS011;62540;48.456;-4.456;2022-11-18T13:10:50;0.00;;;0.00;;
74177;SDS011;62540;48.456;-4.456;2022-11-18T13:13:37;0.00;;;0.00;;
74177;SDS011;62540;48.456;-4.456;2022-11-18T13:16:15;0.00;;;0.00;;
74177;SDS011;62540;48.456;-4.456;2022-11-18T13:19:01;0.00;;;0.00;;
74177;SDS011;62540;48.456;-4.456;2022-11-18T13:21:28;0.00;;;0.00;;
74177;SDS011;62540;48.456;-4.456;2022-11-18T13:24:13;0.00;;;0.00;;
74177;SDS011;62540;48.456;-4.456;2022-11-18T13:26:41;0.00;;;0.00;;
74177;SDS011;62540;48.456;-4.456;2022-11-18T13:32:19;0.00;;;0.00;;
74177;SDS011;62540;48.456;-4.456;2022-11-18T13:34:48;0.00;;;0.00;;
74177;SDS011;62540;48.456;-4.456;2022-11-18T13:37:16;0.00;;;0.00;;
74177;SDS011;62540;48.456;-4.456;2022-11-18T13:39:51;0.00;;;0.00;;
74177;SDS011;62540;48.456;-4.456;2022-11-18T13:42:18;2.50;;;0.00;;
74177;SDS011;62540;48.456;-4.456;2022-11-18T13:49:53;0.00;;;0.00;;
74177;SDS011;62540;48.456;-4.456;2022-11-18T13:52:23;0.50;;;0.00;;
74177;SDS011;62540;48.456;-4.456;2022-11-18T13:55:22;0.00;;;0.00;;
74177;SDS011;62540;48.456;-4.456;2022-11-18T13:57:51;0.00;;;0.00;;
74177;SDS011;62540;48.456;-4.456;2022-11-18T14:00:29;0.00;;;0.00;;
74177;SDS011;62540;48.456;-4.456;2022-11-18T14:02:59;0.00;;;0.00;;
74177;SDS011;62540;48.456;-4.456;2022-11-18T14:05:28;0.00;;;0.00;;
74177;SDS011;62540;48.456;-4.456;2022-11-18T14:07:58;0.00;;;0.00;;
74177;SDS011;62540;48.456;-4.456;2022-11-18T14:10:38;0.00;;;0.00;;
74177;SDS011;62540;48.456;-4.456;2022-11-18T14:13:23;0.00;;;0.00;;
74177;SDS011;62540;48.456;-4.456;2022-11-18T14:15:49;0.00;;;0.00;;
74177;SDS011;62540;48.456;-4.456;2022-11-18T14:18:26;0.00;;;0.00;;
74177;SDS011;62540;48.456;-4.456;2022-11-18T14:20:55;0.00;;;0.00;;
74177;SDS011;62540;48.456;-4.456;2022-11-18T14:23:25;0.00;;;0.00;;
74177;SDS011;62540;48.456;-4.456;2022-11-18T14:25:53;0.00;;;0.00;;
74177;SDS011;62540;48.456;-4.456;2022-11-18T14:28:22;0.00;;;0.00;;
74177;SDS011;62540;48.456;-4.456;2022-11-18T14:31:01;0.00;;;0.00;;
74177;SDS011;62540;48.456;-4.456;2022-11-18T14:36:29;0.00;;;0.00;;
74177;SDS011;62540;48.456;-4.456;2022-11-18T14:38:54;0.50;;;0.00;;
74177;SDS011;62540;48.456;-4.456;2022-11-18T14:41:20;0.00;;;0.00;;
74177;SDS011;62540;48.456;-4.456;2022-11-18T14:44:06;0.00;;;0.00;;
74177;SDS011;62540;48.456;-4.456;2022-11-18T14:46:32;0.50;;;0.00;;
74177;SDS011;62540;48.456;-4.456;2022-11-18T14:49:01;0.00;;;0.00;;
74177;SDS011;62540;48.456;-4.456;2022-11-18T14:51:29;0.00;;;0.00;;
74177;SDS011;62540;48.456;-4.456;2022-11-18T14:53:54;0.00;;;0.00;;
74177;SDS011;62540;48.456;-4.456;2022-11-18T14:56:21;0.00;;;0.00;;
74177;SDS011;62540;48.456;-4.456;2022-11-18T14:58:50;0.00;;;0.00;;
74177;SDS011;62540;48.456;-4.456;2022-11-18T15:01:15;0.00;;;0.00;;
74177;SDS011;62540;48.456;-4.456;2022-11-18T15:03:41;0.00;;;0.00;;
74177;SDS011;62540;48.456;-4.456;2022-11-18T15:06:11;0.50;;;0.00;;
74177;SDS011;62540;48.456;-4.456;2022-11-18T15:08:41;0.50;;;0.00;;
74177;SDS011;62540;48.456;-4.456;2022-11-18T15:11:07;0.00;;;0.00;;
74177;SDS011;62540;48.456;-4.456;2022-11-18T15:13:33;0.00;;;0.00;;
74177;SDS011;62540;48.456;-4.456;2022-11-18T15:16:00;0.00;;;0.00;;
74177;SDS011;62540;48.456;-4.456;2022-11-18T15:18:33;0.00;;;0.00;;
74177;SDS011;62540;48.456;-4.456;2022-11-18T15:20:58;0.00;;;0.00;;
74177;SDS011;62540;48.456;-4.456;2022-11-18T15:23:24;0.50;;;0.00;;
74177;SDS011;62540;48.456;-4.456;2022-11-18T15:25:49;0.00;;;0.00;;
74177;SDS011;62540;48.456;-4.456;2022-11-18T15:28:15;0.00;;;0.00;;
74177;SDS011;62540;48.456;-4.456;2022-11-18T15:30:40;0.00;;;0.00;;
74177;SDS011;62540;48.456;-4.456;2022-11-18T15:33:05;0.00;;;0.00;;
74177;SDS011;62540;48.456;-4.456;2022-11-18T15:35:31;0.00;;;0.00;;
74177;SDS011;62540;48.456;-4.456;2022-11-18T15:37:56;0.00;;;0.00;;
74177;SDS011;62540;48.456;-4.456;2022-11-18T15:40:21;0.00;;;0.00;;
74177;SDS011;62540;48.456;-4.456;2022-11-18T15:42:47;0.00;;;0.00;;
74177;SDS011;62540;48.456;-4.456;2022-11-18T15:45:12;0.00;;;0.00;;
74177;SDS011;62540;48.456;-4.456;2022-11-18T15:47:38;1.00;;;1.00;;
74177;SDS011;62540;48.456;-4.456;2022-11-18T15:50:03;0.75;;;0.75;;
74177;SDS011;62540;48.456;-4.456;2022-11-18T15:52:29;1.00;;;1.00;;
74177;SDS011;62540;48.456;-4.456;2022-11-18T15:54:54;1.25;;;1.00;;
74177;SDS011;62540;48.456;-4.456;2022-11-18T15:57:20;0.00;;;0.00;;
74177;SDS011;62540;48.456;-4.456;2022-11-18T15:59:46;0.00;;;0.00;;
74177;SDS011;62540;48.456;-4.456;2022-11-18T16:02:12;1.00;;;0.00;;
74177;SDS011;62540;48.456;-4.456;2022-11-18T16:04:38;0.00;;;0.00;;
74177;SDS011;62540;48.456;-4.456;2022-11-18T16:07:03;0.75;;;0.00;;
74177;SDS011;62540;48.456;-4.456;2022-11-18T16:09:29;0.75;;;0.75;;
74177;SDS011;62540;48.456;-4.456;2022-11-18T16:12:15;3.50;;;3.50;;
74177;SDS011;62540;48.456;-4.456;2022-11-18T16:14:59;2.75;;;2.00;;
74177;SDS011;62540;48.456;-4.456;2022-11-18T16:17:43;3.00;;;2.00;;
74177;SDS011;62540;48.456;-4.456;2022-11-18T16:20:08;3.00;;;3.00;;
74177;SDS011;62540;48.456;-4.456;2022-11-18T16:22:34;3.00;;;3.00;;
74177;SDS011;62540;48.456;-4.456;2022-11-18T16:25:00;3.00;;;3.00;;
74177;SDS011;62540;48.456;-4.456;2022-11-18T16:27:25;5.25;;;4.00;;
74177;SDS011;62540;48.456;-4.456;2022-11-18T16:29:51;8.00;;;8.00;;
74177;SDS011;62540;48.456;-4.456;2022-11-18T16:32:16;10.75;;;10.00;;
74177;SDS011;62540;48.456;-4.456;2022-11-18T16:34:42;14.00;;;13.50;;
74177;SDS011;62540;48.456;-4.456;2022-11-18T16:37:07;6.25;;;5.00;;
74177;SDS011;62540;48.456;-4.456;2022-11-18T16:39:33;10.50;;;9.75;;